sensor_id;sensor_type;location;lat;lon;timestamp;P1;durP1;ratioP1;P2;durP2;ratioP2
12776;SDS011;6452;41.572;23.732;2024-01-11T00:01:10;19.48;;;13.35;;
12776;SDS011;6452;41.572;23.732;2024-01-11T00:03:37;16.08;;;11.90;;
12776;SDS011;6452;41.572;23.732;2024-01-11T00:06:03;16.95;;;11.70;;
12776;SDS011;6452;41.572;23.732;2024-01-11T00:08:30;18.65;;;13.68;;
12776;SDS011;6452;41.572;23.732;2024-01-11T00:10:57;17.88;;;13.23;;
12776;SDS011;6452;41.572;23.732;2024-01-11T00:13:23;17.63;;;12.07;;
12776;SDS011;6452;41.572;23.732;2024-01-11T00:15:50;15.40;;;10.23;;
12776;SDS011;6452;41.572;23.732;2024-01-11T00:18:17;16.17;;;10.55;;
12776;SDS011;6452;41.572;23.732;2024-01-11T00:20:43;12.98;;;9.63;;
12776;SDS011;6452;41.572;23.732;2024-01-11T00:23:10;14.75;;;11.05;;
12776;SDS011;6452;41.572;23.732;2024-01-11T00:25:36;12.57;;;10.60;;
12776;SDS011;6452;41.572;23.732;2024-01-11T00:28:03;16.90;;;11.82;;
12776;SDS011;6452;41.572;23.732;2024-01-11T00:30:30;13.88;;;11.43;;
12776;SDS011;6452;41.572;23.732;2024-01-11T00:32:57;15.65;;;11.15;;
12776;SDS011;6452;41.572;23.732;2024-01-11T00:35:23;18.52;;;11.80;;
12776;SDS011;6452;41.572;23.732;2024-01-11T00:37:50;15.52;;;11.60;;
12776;SDS011;6452;41.572;23.732;2024-01-11T00:40:17;15.13;;;11.00;;
12776;SDS011;6452;41.572;23.732;2024-01-11T00:42:44;15.23;;;10.90;;
12776;SDS011;6452;41.572;23.732;2024-01-11T00:45:10;18.85;;;11.20;;
12776;SDS011;6452;41.572;23.732;2024-01-11T00:47:37;14.07;;;10.88;;
12776;SDS011;6452;41.572;23.732;2024-01-11T00:50:03;15.82;;;10.55;;
12776;SDS011;6452;41.572;23.732;2024-01-11T00:52:30;14.00;;;10.27;;
12776;SDS011;6452;41.572;23.732;2024-01-11T00:54:57;13.23;;;9.15;;
12776;SDS011;6452;41.572;23.732;2024-01-11T00:57:24;13.15;;;10.05;;
12776;SDS011;6452;41.572;23.732;2024-01-11T00:59:50;14.52;;;10.40;;
12776;SDS011;6452;41.572;23.732;2024-01-11T01:02:19;14.82;;;10.13;;
12776;SDS011;6452;41.572;23.732;2024-01-11T01:04:46;14.77;;;9.77;;
12776;SDS011;6452;41.572;23.732;2024-01-11T01:07:13;17.38;;;10.70;;
12776;SDS011;6452;41.572;23.732;2024-01-11T01:09:39;15.73;;;10.85;;
12776;SDS011;6452;41.572;23.732;2024-01-11T01:12:06;19.25;;;12.27;;
12776;SDS011;6452;41.572;23.732;2024-01-11T01:14:32;19.98;;;12.50;;
12776;SDS011;6452;41.572;23.732;2024-01-11T01:16:59;19.25;;;12.48;;
12776;SDS011;6452;41.572;23.732;2024-01-11T01:19:25;19.30;;;11.68;;
12776;SDS011;6452;41.572;23.732;2024-01-11T01:21:52;16.70;;;12.07;;
12776;SDS011;6452;41.572;23.732;2024-01-11T01:24:18;15.30;;;11.55;;
12776;SDS011;6452;41.572;23.732;2024-01-11T01:26:44;15.05;;;10.32;;
12776;SDS011;6452;41.572;23.732;2024-01-11T01:29:11;17.65;;;12.50;;
12776;SDS011;6452;41.572;23.732;2024-01-11T01:31:38;14.55;;;10.40;;
12776;SDS011;6452;41.572;23.732;2024-01-11T01:34:05;13.85;;;9.68;;
12776;SDS011;6452;41.572;23.732;2024-01-11T01:36:32;14.57;;;9.43;;
12776;SDS011;6452;41.572;23.732;2024-01-11T01:38:58;14.75;;;9.93;;
12776;SDS011;6452;41.572;23.732;2024-01-11T01:41:25;13.75;;;9.32;;
12776;SDS011;6452;41.572;23.732;2024-01-11T01:43:51;14.82;;;10.05;;
12776;SDS011;6452;41.572;23.732;2024-01-11T01:46:19;15.13;;;8.95;;
12776;SDS011;6452;41.572;23.732;2024-01-11T01:48:49;14.00;;;9.90;;
12776;SDS011;6452;41.572;23.732;2024-01-11T01:51:17;13.07;;;9.25;;
12776;SDS011;6452;41.572;23.732;2024-01-11T01:53:44;16.30;;;9.95;;
12776;SDS011;6452;41.572;23.732;2024-01-11T01:56:11;14.65;;;10.23;;
12776;SDS011;6452;41.572;23.732;2024-01-11T01:58:38;12.65;;;9.20;;
12776;SDS011;6452;41.572;23.732;2024-01-11T02:01:04;10.93;;;8.10;;
12776;SDS011;6452;41.572;23.732;2024-01-11T02:03:30;10.15;;;7.78;;
12776;SDS011;6452;41.572;23.732;2024-01-11T02:06:01;10.07;;;8.50;;
12776;SDS011;6452;41.572;23.732;2024-01-11T02:08:29;12.02;;;8.50;;
12776;SDS011;6452;41.572;23.732;2024-01-11T02:10:58;13.35;;;9.00;;
12776;SDS011;6452;41.572;23.732;2024-01-11T02:13:25;13.45;;;8.27;;
12776;SDS011;6452;41.572;23.732;2024-01-11T02:15:51;12.20;;;9.32;;
12776;SDS011;6452;41.572;23.732;2024-01-11T02:18:18;12.30;;;8.98;;
12776;SDS011;6452;41.572;23.732;2024-01-11T02:20:44;10.73;;;8.00;;
12776;SDS011;6452;41.572;23.732;2024-01-11T02:23:12;12.60;;;9.65;;
12776;SDS011;6452;41.572;23.732;2024-01-11T02:25:42;13.20;;;8.25;;
12776;SDS011;6452;41.572;23.732;2024-01-11T02:28:08;16.40;;;9.48;;
12776;SDS011;6452;41.572;23.732;2024-01-11T02:30:36;13.00;;;8.98;;
12776;SDS011;6452;41.572;23.732;2024-01-11T02:33:03;12.52;;;9.02;;
12776;SDS011;6452;41.572;23.732;2024-01-11T02:35:31;11.90;;;8.63;;
12776;SDS011;6452;41.572;23.732;2024-01-11T02:37:58;11.80;;;9.05;;
12776;SDS011;6452;41.572;23.732;2024-01-11T02:40:25;13.27;;;9.52;;
12776;SDS011;6452;41.572;23.732;2024-01-11T02:42:52;14.68;;;10.55;;
12776;SDS011;6452;41.572;23.732;2024-01-11T02:45:18;14.82;;;9.65;;
12776;SDS011;6452;41.572;23.732;2024-01-11T02:47:45;15.07;;;11.40;;
12776;SDS011;6452;41.572;23.732;2024-01-11T02:50:12;12.73;;;10.32;;
12776;SDS011;6452;41.572;23.732;2024-01-11T02:52:39;14.10;;;11.18;;
12776;SDS011;6452;41.572;23.732;2024-01-11T02:55:05;14.18;;;10.75;;
12776;SDS011;6452;41.572;23.732;2024-01-11T02:57:32;13.00;;;10.43;;
12776;SDS011;6452;41.572;23.732;2024-01-11T02:59:59;14.15;;;10.48;;
12776;SDS011;6452;41.572;23.732;2024-01-11T03:02:25;14.50;;;8.13;;
12776;SDS011;6452;41.572;23.732;2024-01-11T03:04:52;13.98;;;9.32;;
12776;SDS011;6452;41.572;23.732;2024-01-11T03:07:18;11.52;;;8.43;;
12776;SDS011;6452;41.572;23.732;2024-01-11T03:09:45;10.25;;;7.13;;
12776;SDS011;6452;41.572;23.732;2024-01-11T03:12:12;9.57;;;7.10;;
12776;SDS011;6452;41.572;23.732;2024-01-11T03:14:38;10.57;;;6.03;;
12776;SDS011;6452;41.572;23.732;2024-01-11T03:17:05;9.25;;;6.35;;
12776;SDS011;6452;41.572;23.732;2024-01-11T03:19:31;7.32;;;5.80;;
12776;SDS011;6452;41.572;23.732;2024-01-11T03:21:57;13.10;;;7.50;;
12776;SDS011;6452;41.572;23.732;2024-01-11T03:24:28;10.65;;;7.30;;
12776;SDS011;6452;41.572;23.732;2024-01-11T03:26:55;10.88;;;6.93;;
12776;SDS011;6452;41.572;23.732;2024-01-11T03:29:21;10.50;;;7.45;;
12776;SDS011;6452;41.572;23.732;2024-01-11T03:31:48;11.18;;;7.22;;
12776;SDS011;6452;41.572;23.732;2024-01-11T03:34:14;9.98;;;6.90;;
12776;SDS011;6452;41.572;23.732;2024-01-11T03:36:42;11.00;;;7.50;;
12776;SDS011;6452;41.572;23.732;2024-01-11T03:39:08;11.93;;;8.18;;
12776;SDS011;6452;41.572;23.732;2024-01-11T03:41:35;10.02;;;7.85;;
12776;SDS011;6452;41.572;23.732;2024-01-11T03:44:02;10.13;;;7.63;;
12776;SDS011;6452;41.572;23.732;2024-01-11T03:46:29;12.90;;;8.27;;
12776;SDS011;6452;41.572;23.732;2024-01-11T03:48:56;11.85;;;8.02;;
12776;SDS011;6452;41.572;23.732;2024-01-11T03:51:22;10.30;;;7.38;;
12776;SDS011;6452;41.572;23.732;2024-01-11T03:53:49;11.93;;;9.13;;
12776;SDS011;6452;41.572;23.732;2024-01-11T03:56:15;19.35;;;12.68;;
12776;SDS011;6452;41.572;23.732;2024-01-11T03:58:41;12.88;;;10.73;;
12776;SDS011;6452;41.572;23.732;2024-01-11T04:01:10;16.25;;;12.02;;
12776;SDS011;6452;41.572;23.732;2024-01-11T04:03:36;12.65;;;10.82;;
12776;SDS011;6452;41.572;23.732;2024-01-11T04:06:03;13.80;;;10.38;;
12776;SDS011;6452;41.572;23.732;2024-01-11T04:08:31;10.30;;;9.20;;
12776;SDS011;6452;41.572;23.732;2024-01-11T04:10:57;11.60;;;9.80;;
12776;SDS011;6452;41.572;23.732;2024-01-11T04:13:27;13.40;;;10.73;;
12776;SDS011;6452;41.572;23.732;2024-01-11T04:15:53;14.07;;;9.98;;
12776;SDS011;6452;41.572;23.732;2024-01-11T04:18:20;12.93;;;10.45;;
12776;SDS011;6452;41.572;23.732;2024-01-11T04:20:47;13.88;;;10.70;;
12776;SDS011;6452;41.572;23.732;2024-01-11T04:23:14;12.32;;;10.18;;
12776;SDS011;6452;41.572;23.732;2024-01-11T04:25:40;12.52;;;9.93;;
12776;SDS011;6452;41.572;23.732;2024-01-11T04:28:07;13.38;;;10.70;;
12776;SDS011;6452;41.572;23.732;2024-01-11T04:30:35;12.02;;;10.57;;
12776;SDS011;6452;41.572;23.732;2024-01-11T04:33:01;15.40;;;12.02;;
12776;SDS011;6452;41.572;23.732;2024-01-11T04:35:29;17.42;;;12.15;;
12776;SDS011;6452;41.572;23.732;2024-01-11T04:37:56;16.52;;;12.68;;
12776;SDS011;6452;41.572;23.732;2024-01-11T04:40:22;16.85;;;12.77;;
12776;SDS011;6452;41.572;23.732;2024-01-11T04:42:49;21.35;;;13.23;;
12776;SDS011;6452;41.572;23.732;2024-01-11T04:45:14;21.92;;;14.13;;
12776;SDS011;6452;41.572;23.732;2024-01-11T04:47:41;19.95;;;13.32;;
12776;SDS011;6452;41.572;23.732;2024-01-11T04:50:07;23.98;;;16.13;;
12776;SDS011;6452;41.572;23.732;2024-01-11T04:52:35;22.63;;;15.43;;
12776;SDS011;6452;41.572;23.732;2024-01-11T04:55:02;19.90;;;13.52;;
12776;SDS011;6452;41.572;23.732;2024-01-11T04:57:30;17.95;;;13.70;;
12776;SDS011;6452;41.572;23.732;2024-01-11T04:59:56;16.50;;;12.32;;
12776;SDS011;6452;41.572;23.732;2024-01-11T05:02:23;18.90;;;13.27;;
12776;SDS011;6452;41.572;23.732;2024-01-11T05:04:49;20.40;;;13.60;;
12776;SDS011;6452;41.572;23.732;2024-01-11T05:07:16;17.00;;;12.52;;
12776;SDS011;6452;41.572;23.732;2024-01-11T05:09:43;16.42;;;12.05;;
12776;SDS011;6452;41.572;23.732;2024-01-11T05:12:09;15.23;;;11.02;;
12776;SDS011;6452;41.572;23.732;2024-01-11T05:14:36;19.15;;;14.07;;
12776;SDS011;6452;41.572;23.732;2024-01-11T05:17:03;22.73;;;14.65;;
12776;SDS011;6452;41.572;23.732;2024-01-11T05:19:29;20.65;;;14.55;;
12776;SDS011;6452;41.572;23.732;2024-01-11T05:21:56;19.35;;;13.13;;
12776;SDS011;6452;41.572;23.732;2024-01-11T05:24:22;18.95;;;13.32;;
12776;SDS011;6452;41.572;23.732;2024-01-11T05:26:49;22.42;;;14.43;;
12776;SDS011;6452;41.572;23.732;2024-01-11T05:29:15;19.95;;;13.85;;
12776;SDS011;6452;41.572;23.732;2024-01-11T05:31:42;19.60;;;13.70;;
12776;SDS011;6452;41.572;23.732;2024-01-11T05:34:08;19.25;;;13.43;;
12776;SDS011;6452;41.572;23.732;2024-01-11T05:36:37;18.30;;;12.95;;
12776;SDS011;6452;41.572;23.732;2024-01-11T05:39:04;19.63;;;14.05;;
12776;SDS011;6452;41.572;23.732;2024-01-11T05:41:31;20.35;;;13.63;;
12776;SDS011;6452;41.572;23.732;2024-01-11T05:43:58;23.25;;;15.18;;
12776;SDS011;6452;41.572;23.732;2024-01-11T05:46:24;20.52;;;14.35;;
12776;SDS011;6452;41.572;23.732;2024-01-11T05:48:50;20.63;;;16.88;;
12776;SDS011;6452;41.572;23.732;2024-01-11T05:51:18;25.73;;;19.38;;
12776;SDS011;6452;41.572;23.732;2024-01-11T05:53:44;30.48;;;22.73;;
12776;SDS011;6452;41.572;23.732;2024-01-11T05:56:11;29.75;;;23.15;;
12776;SDS011;6452;41.572;23.732;2024-01-11T05:58:39;28.08;;;21.45;;
12776;SDS011;6452;41.572;23.732;2024-01-11T06:01:05;28.42;;;21.27;;
12776;SDS011;6452;41.572;23.732;2024-01-11T06:03:32;28.10;;;20.35;;
12776;SDS011;6452;41.572;23.732;2024-01-11T06:06:00;50.40;;;28.50;;
12776;SDS011;6452;41.572;23.732;2024-01-11T06:08:28;65.20;;;33.13;;
12776;SDS011;6452;41.572;23.732;2024-01-11T06:10:56;53.40;;;31.23;;
12776;SDS011;6452;41.572;23.732;2024-01-11T06:13:43;48.95;;;28.90;;
12776;SDS011;6452;41.572;23.732;2024-01-11T06:16:10;45.22;;;28.67;;
12776;SDS011;6452;41.572;23.732;2024-01-11T06:18:36;44.92;;;28.20;;
12776;SDS011;6452;41.572;23.732;2024-01-11T06:21:03;43.70;;;28.10;;
12776;SDS011;6452;41.572;23.732;2024-01-11T06:23:29;44.35;;;27.77;;
12776;SDS011;6452;41.572;23.732;2024-01-11T06:25:56;49.97;;;31.88;;
12776;SDS011;6452;41.572;23.732;2024-01-11T06:28:22;46.85;;;29.30;;
12776;SDS011;6452;41.572;23.732;2024-01-11T06:30:48;46.75;;;29.63;;
12776;SDS011;6452;41.572;23.732;2024-01-11T06:33:15;47.17;;;31.73;;
12776;SDS011;6452;41.572;23.732;2024-01-11T06:35:41;47.50;;;32.88;;
12776;SDS011;6452;41.572;23.732;2024-01-11T06:38:08;41.72;;;29.77;;
12776;SDS011;6452;41.572;23.732;2024-01-11T06:40:35;46.85;;;31.08;;
12776;SDS011;6452;41.572;23.732;2024-01-11T06:43:01;36.47;;;26.95;;
12776;SDS011;6452;41.572;23.732;2024-01-11T06:45:28;38.75;;;27.23;;
12776;SDS011;6452;41.572;23.732;2024-01-11T06:47:55;33.25;;;25.02;;
12776;SDS011;6452;41.572;23.732;2024-01-11T06:50:20;31.90;;;22.35;;
12776;SDS011;6452;41.572;23.732;2024-01-11T06:52:47;28.50;;;20.58;;
12776;SDS011;6452;41.572;23.732;2024-01-11T06:55:14;34.42;;;22.52;;
12776;SDS011;6452;41.572;23.732;2024-01-11T06:57:41;39.88;;;22.45;;
12776;SDS011;6452;41.572;23.732;2024-01-11T07:00:08;27.80;;;21.45;;
12776;SDS011;6452;41.572;23.732;2024-01-11T07:02:36;73.10;;;35.70;;
12776;SDS011;6452;41.572;23.732;2024-01-11T07:05:02;47.88;;;29.83;;
12776;SDS011;6452;41.572;23.732;2024-01-11T07:07:30;42.40;;;27.10;;
12776;SDS011;6452;41.572;23.732;2024-01-11T07:09:56;35.55;;;22.95;;
12776;SDS011;6452;41.572;23.732;2024-01-11T07:12:24;20.45;;;14.07;;
12776;SDS011;6452;41.572;23.732;2024-01-11T07:14:51;18.40;;;15.80;;
12776;SDS011;6452;41.572;23.732;2024-01-11T07:17:17;18.50;;;14.73;;
12776;SDS011;6452;41.572;23.732;2024-01-11T07:19:43;19.30;;;14.63;;
12776;SDS011;6452;41.572;23.732;2024-01-11T07:22:09;23.45;;;15.52;;
12776;SDS011;6452;41.572;23.732;2024-01-11T07:24:35;18.02;;;13.27;;
12776;SDS011;6452;41.572;23.732;2024-01-11T07:27:03;23.23;;;18.02;;
12776;SDS011;6452;41.572;23.732;2024-01-11T07:29:33;25.65;;;19.30;;
12776;SDS011;6452;41.572;23.732;2024-01-11T07:32:00;43.45;;;25.83;;
12776;SDS011;6452;41.572;23.732;2024-01-11T07:34:26;44.95;;;26.75;;
12776;SDS011;6452;41.572;23.732;2024-01-11T07:36:52;39.97;;;23.52;;
12776;SDS011;6452;41.572;23.732;2024-01-11T07:39:19;30.27;;;20.92;;
12776;SDS011;6452;41.572;23.732;2024-01-11T07:41:46;26.00;;;19.00;;
12776;SDS011;6452;41.572;23.732;2024-01-11T07:44:13;22.88;;;18.27;;
12776;SDS011;6452;41.572;23.732;2024-01-11T07:46:39;19.73;;;16.02;;
12776;SDS011;6452;41.572;23.732;2024-01-11T07:49:06;20.50;;;16.10;;
12776;SDS011;6452;41.572;23.732;2024-01-11T07:51:33;22.73;;;18.65;;
12776;SDS011;6452;41.572;23.732;2024-01-11T07:54:00;20.63;;;16.17;;
12776;SDS011;6452;41.572;23.732;2024-01-11T07:56:26;16.23;;;13.75;;
12776;SDS011;6452;41.572;23.732;2024-01-11T07:58:53;26.05;;;20.55;;
12776;SDS011;6452;41.572;23.732;2024-01-11T08:01:19;16.30;;;12.93;;
12776;SDS011;6452;41.572;23.732;2024-01-11T08:03:46;14.18;;;12.30;;
12776;SDS011;6452;41.572;23.732;2024-01-11T08:06:13;19.70;;;15.07;;
12776;SDS011;6452;41.572;23.732;2024-01-11T08:08:39;15.55;;;12.98;;
12776;SDS011;6452;41.572;23.732;2024-01-11T08:11:09;17.67;;;11.80;;
12776;SDS011;6452;41.572;23.732;2024-01-11T08:13:38;14.10;;;12.13;;
12776;SDS011;6452;41.572;23.732;2024-01-11T08:16:05;19.38;;;14.23;;
12776;SDS011;6452;41.572;23.732;2024-01-11T08:18:35;16.27;;;12.63;;
12776;SDS011;6452;41.572;23.732;2024-01-11T08:32:59;15.32;;;13.70;;
12776;SDS011;6452;41.572;23.732;2024-01-11T08:35:26;16.50;;;13.18;;
12776;SDS011;6452;41.572;23.732;2024-01-11T08:37:53;15.90;;;12.15;;
12776;SDS011;6452;41.572;23.732;2024-01-11T08:40:19;16.25;;;11.63;;
12776;SDS011;6452;41.572;23.732;2024-01-11T08:42:45;12.80;;;11.27;;
12776;SDS011;6452;41.572;23.732;2024-01-11T08:45:11;13.98;;;11.40;;
12776;SDS011;6452;41.572;23.732;2024-01-11T08:47:46;16.05;;;9.82;;
12776;SDS011;6452;41.572;23.732;2024-01-11T08:50:12;13.07;;;10.93;;
12776;SDS011;6452;41.572;23.732;2024-01-11T08:52:39;11.02;;;9.88;;
12776;SDS011;6452;41.572;23.732;2024-01-11T08:55:05;13.50;;;10.52;;
12776;SDS011;6452;41.572;23.732;2024-01-11T08:57:31;12.32;;;10.57;;
12776;SDS011;6452;41.572;23.732;2024-01-11T08:59:58;12.88;;;9.40;;
12776;SDS011;6452;41.572;23.732;2024-01-11T09:02:24;12.23;;;10.90;;
12776;SDS011;6452;41.572;23.732;2024-01-11T09:04:50;14.43;;;10.88;;
12776;SDS011;6452;41.572;23.732;2024-01-11T09:07:16;12.82;;;10.38;;
12776;SDS011;6452;41.572;23.732;2024-01-11T09:09:42;15.98;;;11.35;;
12776;SDS011;6452;41.572;23.732;2024-01-11T09:12:08;11.02;;;9.40;;
12776;SDS011;6452;41.572;23.732;2024-01-11T09:14:34;11.18;;;9.48;;
12776;SDS011;6452;41.572;23.732;2024-01-11T09:17:00;9.48;;;8.50;;
12776;SDS011;6452;41.572;23.732;2024-01-11T09:19:26;9.75;;;8.68;;
12776;SDS011;6452;41.572;23.732;2024-01-11T09:21:52;9.55;;;8.48;;
12776;SDS011;6452;41.572;23.732;2024-01-11T09:24:18;10.05;;;7.72;;
12776;SDS011;6452;41.572;23.732;2024-01-11T09:26:44;8.20;;;7.40;;
12776;SDS011;6452;41.572;23.732;2024-01-11T09:29:10;7.85;;;7.05;;
12776;SDS011;6452;41.572;23.732;2024-01-11T09:31:36;8.07;;;7.28;;
12776;SDS011;6452;41.572;23.732;2024-01-11T09:34:02;8.10;;;7.28;;
12776;SDS011;6452;41.572;23.732;2024-01-11T09:36:28;8.30;;;7.50;;
12776;SDS011;6452;41.572;23.732;2024-01-11T09:38:54;11.75;;;8.30;;
12776;SDS011;6452;41.572;23.732;2024-01-11T09:41:21;9.13;;;8.15;;
12776;SDS011;6452;41.572;23.732;2024-01-11T09:43:47;7.53;;;6.82;;
12776;SDS011;6452;41.572;23.732;2024-01-11T09:46:15;8.75;;;7.07;;
12776;SDS011;6452;41.572;23.732;2024-01-11T09:48:43;7.70;;;6.90;;
12776;SDS011;6452;41.572;23.732;2024-01-11T09:51:10;7.45;;;6.60;;
12776;SDS011;6452;41.572;23.732;2024-01-11T09:53:38;7.30;;;5.90;;
12776;SDS011;6452;41.572;23.732;2024-01-11T09:56:08;6.88;;;6.25;;
12776;SDS011;6452;41.572;23.732;2024-01-11T09:58:37;9.65;;;7.63;;
12776;SDS011;6452;41.572;23.732;2024-01-11T10:01:11;9.13;;;7.30;;
12776;SDS011;6452;41.572;23.732;2024-01-11T10:03:39;5.38;;;4.88;;
12776;SDS011;6452;41.572;23.732;2024-01-11T10:06:05;5.32;;;4.80;;
12776;SDS011;6452;41.572;23.732;2024-01-11T10:08:32;6.38;;;5.72;;
12776;SDS011;6452;41.572;23.732;2024-01-11T10:10:59;8.07;;;6.38;;
12776;SDS011;6452;41.572;23.732;2024-01-11T10:13:26;5.05;;;4.65;;
12776;SDS011;6452;41.572;23.732;2024-01-11T10:15:53;6.95;;;4.22;;
12776;SDS011;6452;41.572;23.732;2024-01-11T10:18:30;8.07;;;7.00;;
12776;SDS011;6452;41.572;23.732;2024-01-11T10:20:56;14.10;;;10.70;;
12776;SDS011;6452;41.572;23.732;2024-01-11T10:23:23;7.03;;;6.10;;
12776;SDS011;6452;41.572;23.732;2024-01-11T10:25:49;4.82;;;4.45;;
12776;SDS011;6452;41.572;23.732;2024-01-11T10:28:15;6.07;;;5.45;;
12776;SDS011;6452;41.572;23.732;2024-01-11T10:30:45;10.32;;;6.95;;
12776;SDS011;6452;41.572;23.732;2024-01-11T10:33:11;8.32;;;7.43;;
12776;SDS011;6452;41.572;23.732;2024-01-11T10:35:37;5.55;;;4.90;;
12776;SDS011;6452;41.572;23.732;2024-01-11T10:38:05;6.15;;;5.40;;
12776;SDS011;6452;41.572;23.732;2024-01-11T10:40:33;5.25;;;4.75;;
12776;SDS011;6452;41.572;23.732;2024-01-11T10:42:59;5.07;;;4.57;;
12776;SDS011;6452;41.572;23.732;2024-01-11T10:45:27;5.70;;;5.20;;
12776;SDS011;6452;41.572;23.732;2024-01-11T10:47:56;4.65;;;4.32;;
12776;SDS011;6452;41.572;23.732;2024-01-11T10:50:26;5.78;;;5.22;;
12776;SDS011;6452;41.572;23.732;2024-01-11T10:55:40;8.68;;;4.70;;
12776;SDS011;6452;41.572;23.732;2024-01-11T10:58:07;5.80;;;5.28;;
12776;SDS011;6452;41.572;23.732;2024-01-11T11:00:34;6.78;;;6.07;;
12776;SDS011;6452;41.572;23.732;2024-01-11T11:03:01;6.13;;;5.47;;
12776;SDS011;6452;41.572;23.732;2024-01-11T11:05:28;5.57;;;5.15;;
12776;SDS011;6452;41.572;23.732;2024-01-11T11:07:55;6.20;;;5.70;;
12776;SDS011;6452;41.572;23.732;2024-01-11T11:10:21;7.85;;;6.93;;
12776;SDS011;6452;41.572;23.732;2024-01-11T11:12:48;6.97;;;6.28;;
12776;SDS011;6452;41.572;23.732;2024-01-11T11:15:14;6.60;;;6.00;;
12776;SDS011;6452;41.572;23.732;2024-01-11T11:17:40;8.48;;;5.82;;
12776;SDS011;6452;41.572;23.732;2024-01-11T11:20:07;7.00;;;6.00;;
12776;SDS011;6452;41.572;23.732;2024-01-11T11:22:42;7.18;;;6.38;;
12776;SDS011;6452;41.572;23.732;2024-01-11T11:25:11;8.80;;;7.63;;
12776;SDS011;6452;41.572;23.732;2024-01-11T11:27:49;6.68;;;5.95;;
12776;SDS011;6452;41.572;23.732;2024-01-11T11:30:14;7.38;;;6.45;;
12776;SDS011;6452;41.572;23.732;2024-01-11T11:32:44;6.57;;;5.97;;
12776;SDS011;6452;41.572;23.732;2024-01-11T11:35:10;6.70;;;6.10;;
12776;SDS011;6452;41.572;23.732;2024-01-11T11:37:37;8.32;;;7.53;;
12776;SDS011;6452;41.572;23.732;2024-01-11T11:40:07;4.07;;;3.35;;
12776;SDS011;6452;41.572;23.732;2024-01-11T11:42:36;6.95;;;5.88;;
12776;SDS011;6452;41.572;23.732;2024-01-11T11:45:02;9.10;;;4.50;;
12776;SDS011;6452;41.572;23.732;2024-01-11T11:47:35;4.97;;;4.03;;
12776;SDS011;6452;41.572;23.732;2024-01-11T11:50:07;4.50;;;4.10;;
12776;SDS011;6452;41.572;23.732;2024-01-11T11:52:33;4.60;;;4.30;;
12776;SDS011;6452;41.572;23.732;2024-01-11T11:55:02;4.68;;;4.28;;
12776;SDS011;6452;41.572;23.732;2024-01-11T11:57:29;4.47;;;4.07;;
12776;SDS011;6452;41.572;23.732;2024-01-11T11:59:56;5.15;;;4.75;;
12776;SDS011;6452;41.572;23.732;2024-01-11T12:02:22;3.97;;;3.67;;
12776;SDS011;6452;41.572;23.732;2024-01-11T12:04:48;3.47;;;3.28;;
12776;SDS011;6452;41.572;23.732;2024-01-11T12:07:14;4.57;;;4.00;;
12776;SDS011;6452;41.572;23.732;2024-01-11T12:09:41;4.32;;;4.03;;
12776;SDS011;6452;41.572;23.732;2024-01-11T12:12:07;4.20;;;3.80;;
12776;SDS011;6452;41.572;23.732;2024-01-11T12:14:34;3.75;;;3.55;;
12776;SDS011;6452;41.572;23.732;2024-01-11T12:17:00;3.65;;;3.35;;
12776;SDS011;6452;41.572;23.732;2024-01-11T12:19:27;3.80;;;3.50;;
12776;SDS011;6452;41.572;23.732;2024-01-11T12:21:53;3.10;;;2.90;;
12776;SDS011;6452;41.572;23.732;2024-01-11T12:24:20;3.50;;;3.30;;
12776;SDS011;6452;41.572;23.732;2024-01-11T12:26:49;3.40;;;3.20;;
12776;SDS011;6452;41.572;23.732;2024-01-11T12:29:17;3.30;;;3.10;;
12776;SDS011;6452;41.572;23.732;2024-01-11T12:31:46;4.20;;;3.90;;
12776;SDS011;6452;41.572;23.732;2024-01-11T12:34:12;4.38;;;3.97;;
12776;SDS011;6452;41.572;23.732;2024-01-11T12:36:39;3.60;;;3.30;;
12776;SDS011;6452;41.572;23.732;2024-01-11T12:39:05;4.00;;;3.70;;
12776;SDS011;6452;41.572;23.732;2024-01-11T12:41:32;3.05;;;2.85;;
12776;SDS011;6452;41.572;23.732;2024-01-11T12:43:59;3.17;;;2.97;;
12776;SDS011;6452;41.572;23.732;2024-01-11T12:46:24;3.67;;;3.38;;
12776;SDS011;6452;41.572;23.732;2024-01-11T12:48:50;4.25;;;3.85;;
12776;SDS011;6452;41.572;23.732;2024-01-11T12:51:17;3.58;;;3.38;;
12776;SDS011;6452;41.572;23.732;2024-01-11T12:53:50;3.28;;;3.00;;
12776;SDS011;6452;41.572;23.732;2024-01-11T12:56:17;4.15;;;3.67;;
12776;SDS011;6452;41.572;23.732;2024-01-11T12:58:43;3.60;;;3.20;;
12776;SDS011;6452;41.572;23.732;2024-01-11T13:01:09;3.33;;;3.20;;
12776;SDS011;6452;41.572;23.732;2024-01-11T13:03:37;3.20;;;3.00;;
12776;SDS011;6452;41.572;23.732;2024-01-11T13:06:03;4.03;;;3.72;;
12776;SDS011;6452;41.572;23.732;2024-01-11T13:08:34;6.40;;;4.53;;
12776;SDS011;6452;41.572;23.732;2024-01-11T13:11:02;4.95;;;4.45;;
12776;SDS011;6452;41.572;23.732;2024-01-11T13:13:33;4.60;;;4.30;;
12776;SDS011;6452;41.572;23.732;2024-01-11T13:16:00;7.90;;;4.35;;
12776;SDS011;6452;41.572;23.732;2024-01-11T13:18:26;6.55;;;5.82;;
12776;SDS011;6452;41.572;23.732;2024-01-11T13:20:52;4.45;;;4.07;;
12776;SDS011;6452;41.572;23.732;2024-01-11T13:23:19;5.90;;;5.30;;
12776;SDS011;6452;41.572;23.732;2024-01-11T13:25:48;5.50;;;5.00;;
12776;SDS011;6452;41.572;23.732;2024-01-11T13:28:17;5.95;;;5.32;;
12776;SDS011;6452;41.572;23.732;2024-01-11T13:30:44;6.72;;;5.30;;
12776;SDS011;6452;41.572;23.732;2024-01-11T13:33:14;8.82;;;6.13;;
12776;SDS011;6452;41.572;23.732;2024-01-11T13:35:42;13.27;;;12.13;;
12776;SDS011;6452;41.572;23.732;2024-01-11T13:38:08;7.05;;;6.53;;
12776;SDS011;6452;41.572;23.732;2024-01-11T13:40:35;7.03;;;6.32;;
12776;SDS011;6452;41.572;23.732;2024-01-11T13:43:01;5.25;;;4.75;;
12776;SDS011;6452;41.572;23.732;2024-01-11T13:45:46;6.03;;;5.43;;
12776;SDS011;6452;41.572;23.732;2024-01-11T13:48:13;6.63;;;5.93;;
12776;SDS011;6452;41.572;23.732;2024-01-11T13:50:39;5.30;;;4.90;;
12776;SDS011;6452;41.572;23.732;2024-01-11T13:53:05;11.27;;;8.00;;
12776;SDS011;6452;41.572;23.732;2024-01-11T13:55:31;11.10;;;9.40;;
12776;SDS011;6452;41.572;23.732;2024-01-11T13:58:03;18.65;;;15.38;;
12776;SDS011;6452;41.572;23.732;2024-01-11T14:00:28;19.92;;;17.80;;
12776;SDS011;6452;41.572;23.732;2024-01-11T14:02:55;21.88;;;19.58;;
12776;SDS011;6452;41.572;23.732;2024-01-11T14:05:20;41.97;;;37.50;;
12776;SDS011;6452;41.572;23.732;2024-01-11T14:07:47;17.70;;;15.95;;
12776;SDS011;6452;41.572;23.732;2024-01-11T14:10:14;15.88;;;14.27;;
12776;SDS011;6452;41.572;23.732;2024-01-11T14:12:39;13.77;;;12.43;;
12776;SDS011;6452;41.572;23.732;2024-01-11T14:15:07;15.70;;;12.40;;
12776;SDS011;6452;41.572;23.732;2024-01-11T14:17:37;16.23;;;14.15;;
12776;SDS011;6452;41.572;23.732;2024-01-11T14:20:02;15.07;;;13.48;;
12776;SDS011;6452;41.572;23.732;2024-01-11T14:22:31;17.80;;;14.68;;
12776;SDS011;6452;41.572;23.732;2024-01-11T14:24:58;16.45;;;13.60;;
12776;SDS011;6452;41.572;23.732;2024-01-11T14:27:24;13.95;;;12.52;;
12776;SDS011;6452;41.572;23.732;2024-01-11T14:29:50;17.15;;;13.18;;
12776;SDS011;6452;41.572;23.732;2024-01-11T14:32:16;15.55;;;12.00;;
12776;SDS011;6452;41.572;23.732;2024-01-11T14:34:42;18.25;;;14.35;;
12776;SDS011;6452;41.572;23.732;2024-01-11T14:37:10;22.95;;;14.98;;
12776;SDS011;6452;41.572;23.732;2024-01-11T14:39:36;24.98;;;16.80;;
12776;SDS011;6452;41.572;23.732;2024-01-11T14:42:02;31.85;;;21.80;;
12776;SDS011;6452;41.572;23.732;2024-01-11T14:44:28;43.28;;;27.70;;